Time;durP1;ratioP1;P1;durP2;ratioP2;P2;SDS_P1;SDS_P2;PMS_P1;PMS_P2;Temp;Humidity;BMP_temperature;BMP_pressure;BME280_temperature;BME280_humidity;BME280_pressure;Samples;Min_cycle;Max_cycle;Signal;HPM_P1;HPM_P2
2022/12/18 00:02:41;;;;;;;65.22;22.85;;;;;;;;;;4574341;76;43760;-87
2022/12/18 00:08:43;;;;;;;60.20;19.75;;;;;;;;;;4550470;76;44224;-88
2022/12/18 00:14:44;;;;;;;71.28;22.32;;;;;;;;;;4575626;76;43796;-87
2022/12/18 00:20:44;;;;;;;61.75;20.77;;;;;;;;;;4577645;76;44524;-88
2022/12/18 00:26:45;;;;;;;55.08;19.60;;;;;;;;;;4569239;76;44128;-89
2022/12/18 00:32:46;;;;;;;56.45;21.00;;;;;;;;;;4558679;76;44142;-88
2022/12/18 00:38:48;;;;;;;59.10;21.05;;;;;;;;;;4520521;76;44216;-93
2022/12/18 00:44:51;;;;;;;49.18;18.37;;;;;;;;;;4480770;78;43361;-86
2022/12/18 00:50:52;;;;;;;59.45;20.60;;;;;;;;;;4483744;78;44102;-88
2022/12/18 00:56:52;;;;;;;52.83;18.75;;;;;;;;;;4470110;78;44540;-87
2022/12/18 01:02:53;;;;;;;54.70;18.45;;;;;;;;;;4452501;79;44149;-87
2022/12/18 01:08:54;;;;;;;56.85;20.05;;;;;;;;;;4498115;78;44106;-87
2022/12/18 01:14:55;;;;;;;58.65;20.02;;;;;;;;;;4490885;78;44113;-87
2022/12/18 01:20:56;;;;;;;55.50;19.52;;;;;;;;;;4491173;79;44158;-87
2022/12/18 01:26:57;;;;;;;51.50;19.77;;;;;;;;;;4478346;78;43581;-88
2022/12/18 01:32:58;;;;;;;51.37;18.35;;;;;;;;;;4459728;78;44019;-89
2022/12/18 01:39:00;;;;;;;48.48;17.55;;;;;;;;;;4495101;76;43804;-89
2022/12/18 01:45:13;;;;;;;54.23;20.32;;;;;;;;;;4477311;77;44178;-85
2022/12/18 01:51:14;;;;;;;60.55;20.82;;;;;;;;;;4482272;77;44114;-84
2022/12/18 01:57:16;;;;;;;55.50;21.25;;;;;;;;;;4447084;77;44111;-85
2022/12/18 02:03:17;;;;;;;59.20;20.30;;;;;;;;;;4365715;79;44143;-85
2022/12/18 02:09:21;;;;;;;55.38;20.52;;;;;;;;;;4248256;82;44135;-84
2022/12/18 02:15:25;;;;;;;53.50;19.10;;;;;;;;;;4253773;81;44099;-84
2022/12/18 02:21:30;;;;;;;50.70;18.57;;;;;;;;;;4493819;77;43727;-83
2022/12/18 02:27:33;;;;;;;50.55;19.07;;;;;;;;;;4498093;77;43725;-84
2022/12/18 02:33:35;;;;;;;49.05;17.57;;;;;;;;;;4502689;77;43762;-83
2022/12/18 02:39:38;;;;;;;49.45;18.98;;;;;;;;;;4510397;77;43757;-83
2022/12/18 02:45:47;;;;;;;49.40;18.48;;;;;;;;;;4550178;76;43740;-83
2022/12/18 02:52:05;;;;;;;59.75;19.95;;;;;;;;;;4575596;76;44104;-83
2022/12/18 02:58:26;;;;;;;52.85;19.52;;;;;;;;;;4535369;76;44096;-84
2022/12/18 03:04:31;;;;;;;54.10;18.85;;;;;;;;;;4554727;76;44116;-83
2022/12/18 03:10:33;;;;;;;49.93;17.52;;;;;;;;;;4544356;77;42878;-85
2022/12/18 03:16:37;;;;;;;44.37;15.53;;;;;;;;;;4555206;76;28577;-83
2022/12/18 03:22:41;;;;;;;49.40;17.77;;;;;;;;;;4497980;77;43820;-83
2022/12/18 03:28:44;;;;;;;55.23;19.25;;;;;;;;;;4550231;76;44145;-83
2022/12/18 03:34:47;;;;;;;47.45;17.62;;;;;;;;;;4565406;76;43740;-83
2022/12/18 03:41:04;;;;;;;55.50;19.10;;;;;;;;;;4556307;76;44175;-82
2022/12/18 03:47:08;;;;;;;55.85;20.00;;;;;;;;;;4557558;76;44112;-82
2022/12/18 03:53:30;;;;;;;50.67;18.55;;;;;;;;;;4550936;76;43817;-82
2022/12/18 03:59:32;;;;;;;46.13;17.67;;;;;;;;;;4530329;76;43721;-83
2022/12/18 04:05:35;;;;;;;50.52;17.25;;;;;;;;;;4549182;77;43800;-83
2022/12/18 04:11:36;;;;;;;50.90;18.00;;;;;;;;;;4552546;76;42901;-84
2022/12/18 04:17:38;;;;;;;43.55;16.60;;;;;;;;;;4557297;76;44444;-84
2022/12/18 04:23:39;;;;;;;50.40;17.92;;;;;;;;;;4497249;77;43311;-86
2022/12/18 04:29:41;;;;;;;45.12;16.85;;;;;;;;;;4550788;76;43738;-83
2022/12/18 04:35:42;;;;;;;48.58;17.32;;;;;;;;;;4562783;77;43718;-84
2022/12/18 04:41:43;;;;;;;46.42;17.10;;;;;;;;;;4528232;76;43765;-84
2022/12/18 04:47:46;;;;;;;47.00;16.40;;;;;;;;;;4580055;76;43788;-84
2022/12/18 04:53:47;;;;;;;53.68;17.70;;;;;;;;;;4570292;76;44104;-85
2022/12/18 04:59:48;;;;;;;48.70;17.42;;;;;;;;;;4554977;76;43776;-82
2022/12/18 05:05:50;;;;;;;47.75;16.15;;;;;;;;;;4589236;76;43790;-83
2022/12/18 05:11:50;;;;;;;53.38;18.15;;;;;;;;;;4577826;76;44032;-83
2022/12/18 05:17:51;;;;;;;49.38;17.57;;;;;;;;;;4582922;76;43800;-83
2022/12/18 05:23:52;;;;;;;45.28;16.12;;;;;;;;;;4553661;76;43700;-83
2022/12/18 05:29:53;;;;;;;48.42;16.80;;;;;;;;;;4562414;76;43749;-82
2022/12/18 05:35:55;;;;;;;46.98;16.50;;;;;;;;;;4576546;76;43808;-80
2022/12/18 05:41:56;;;;;;;52.43;17.40;;;;;;;;;;4544533;77;43280;-81
2022/12/18 05:47:58;;;;;;;50.20;18.10;;;;;;;;;;4492736;77;43833;-80
2022/12/18 05:53:59;;;;;;;54.95;18.62;;;;;;;;;;4541124;76;44224;-80
2022/12/18 06:00:00;;;;;;;48.63;16.67;;;;;;;;;;4557367;76;43720;-80
2022/12/18 06:06:01;;;;;;;52.10;18.75;;;;;;;;;;4558736;76;44041;-80
2022/12/18 06:12:02;;;;;;;46.63;16.10;;;;;;;;;;4558517;76;43749;-80
2022/12/18 06:18:03;;;;;;;48.78;16.87;;;;;;;;;;4560859;77;43291;-80
2022/12/18 06:24:04;;;;;;;45.28;16.67;;;;;;;;;;4564594;76;43745;-81
2022/12/18 06:30:06;;;;;;;51.25;17.48;;;;;;;;;;4561880;77;43306;-82
2022/12/18 06:36:09;;;;;;;45.00;16.20;;;;;;;;;;4559017;76;43234;-81
2022/12/18 06:42:11;;;;;;;59.03;20.00;;;;;;;;;;4485027;77;44148;-82
2022/12/18 06:48:12;;;;;;;57.10;19.05;;;;;;;;;;4460123;77;44150;-80
2022/12/18 06:54:13;;;;;;;48.13;17.98;;;;;;;;;;4480211;77;43754;-81
2022/12/18 07:00:14;;;;;;;60.50;20.55;;;;;;;;;;4467192;77;44516;-81
2022/12/18 07:06:16;;;;;;;50.30;17.82;;;;;;;;;;4470110;77;43323;-80
2022/12/18 07:12:17;;;;;;;51.58;18.30;;;;;;;;;;4460631;77;28574;-80
2022/12/18 07:18:18;;;;;;;48.42;18.02;;;;;;;;;;4495610;77;28527;-81
2022/12/18 07:24:19;;;;;;;48.73;17.75;;;;;;;;;;4498545;77;43732;-85
2022/12/18 07:30:23;;;;;;;51.23;17.73;;;;;;;;;;4483063;77;42916;-80
2022/12/18 07:36:24;;;;;;;55.23;19.23;;;;;;;;;;4487461;77;44118;-80
2022/12/18 07:42:30;;;;;;;53.75;19.50;;;;;;;;;;4545653;76;44100;-79
2022/12/18 07:48:33;;;;;;;49.42;18.35;;;;;;;;;;4549858;77;43768;-79
2022/12/18 07:54:34;;;;;;;48.75;16.62;;;;;;;;;;4535544;76;43804;-79
2022/12/18 08:00:35;;;;;;;52.85;19.30;;;;;;;;;;4549119;76;44096;-79
2022/12/18 08:06:36;;;;;;;56.28;19.17;;;;;;;;;;4542929;76;44104;-79
2022/12/18 08:12:37;;;;;;;46.92;18.40;;;;;;;;;;4543697;76;43790;-84
2022/12/18 08:18:38;;;;;;;51.37;18.10;;;;;;;;;;4549471;77;43511;-82
2022/12/18 08:24:39;;;;;;;49.75;19.50;;;;;;;;;;4543717;77;28507;-82
2022/12/18 08:30:39;;;;;;;45.00;17.27;;;;;;;;;;4516247;77;43827;-83
2022/12/18 08:36:40;;;;;;;43.48;17.02;;;;;;;;;;4547851;76;43678;-84
2022/12/18 08:49:02;;;;;;;54.08;20.12;;;;;;;;;;4542319;76;28540;-83
2022/12/18 08:55:04;;;;;;;54.63;19.52;;;;;;;;;;4517638;76;28687;-83
2022/12/18 09:01:07;;;;;;;52.90;19.90;;;;;;;;;;4537796;77;28634;-82
2022/12/18 09:07:08;;;;;;;54.45;21.60;;;;;;;;;;4509689;76;28486;-85
2022/12/18 09:13:10;;;;;;;58.45;20.65;;;;;;;;;;4547631;76;28579;-78
2022/12/18 09:19:11;;;;;;;54.27;20.43;;;;;;;;;;4566097;76;28500;-83
2022/12/18 09:25:12;;;;;;;61.77;21.42;;;;;;;;;;4510406;76;28539;-86
2022/12/18 09:31:16;;;;;;;56.85;20.02;;;;;;;;;;4543510;76;28449;-84
2022/12/18 09:37:17;;;;;;;58.85;22.40;;;;;;;;;;4556198;76;28540;-87
2022/12/18 09:43:25;;;;;;;62.17;21.85;;;;;;;;;;4575479;76;28543;-89
2022/12/18 09:49:28;;;;;;;61.60;21.52;;;;;;;;;;4578357;76;28605;-88
2022/12/18 09:55:35;;;;;;;56.65;20.23;;;;;;;;;;4474310;78;28511;-89
2022/12/18 10:01:36;;;;;;;55.60;20.32;;;;;;;;;;4386508;78;28597;-89
2022/12/18 10:07:48;;;;;;;53.98;20.02;;;;;;;;;;4583799;76;28567;-89
2022/12/18 10:13:57;;;;;;;56.85;21.33;;;;;;;;;;4586076;76;28518;-89
2022/12/18 10:20:05;;;;;;;53.73;20.30;;;;;;;;;;4583935;76;28507;-88
2022/12/18 10:26:12;;;;;;;55.78;20.17;;;;;;;;;;4481354;78;28495;-87
2022/12/18 10:32:15;;;;;;;53.08;19.35;;;;;;;;;;4366773;80;47066;-88
2022/12/18 10:38:17;;;;;;;53.70;19.95;;;;;;;;;;4567061;76;28514;-87
2022/12/18 10:44:20;;;;;;;53.28;19.70;;;;;;;;;;4560726;76;44104;-88
2022/12/18 10:50:26;;;;;;;43.87;16.45;;;;;;;;;;4568354;76;28616;-88
2022/12/18 10:56:28;;;;;;;53.17;18.75;;;;;;;;;;4541399;76;28510;-86
2022/12/18 11:02:37;;;;;;;43.13;15.98;;;;;;;;;;4538888;76;28541;-88
2022/12/18 11:08:39;;;;;;;51.30;18.15;;;;;;;;;;4549753;76;43718;-88
2022/12/18 11:14:53;;;;;;;38.30;14.80;;;;;;;;;;4453973;78;44457;-88
2022/12/18 11:20:57;;;;;;;37.33;14.58;;;;;;;;;;4449446;78;44406;-89
2022/12/18 11:27:00;;;;;;;42.70;14.55;;;;;;;;;;4447769;78;28507;-87
2022/12/18 11:33:05;;;;;;;38.63;14.25;;;;;;;;;;4459697;78;44443;-89
2022/12/18 11:39:09;;;;;;;31.60;12.82;;;;;;;;;;4445144;78;28531;-89
2022/12/18 11:45:14;;;;;;;32.17;12.63;;;;;;;;;;4467871;78;28519;-89
2022/12/18 11:51:18;;;;;;;32.73;11.65;;;;;;;;;;4487594;78;28560;-88
2022/12/18 11:57:27;;;;;;;29.30;10.90;;;;;;;;;;4474368;78;28499;-88
2022/12/18 12:03:46;;;;;;;29.50;11.22;;;;;;;;;;4469910;78;28642;-88
2022/12/18 12:09:52;;;;;;;30.43;11.22;;;;;;;;;;4578139;76;28553;-88
2022/12/18 12:15:58;;;;;;;28.32;10.45;;;;;;;;;;4564202;76;43426;-88
2022/12/18 12:21:58;;;;;;;;;;;;;;;;;;4590326;76;28514;-88
2022/12/18 12:28:15;;;;;;;29.07;10.50;;;;;;;;;;4566655;76;20687;-89
2022/12/18 12:34:24;;;;;;;32.95;11.35;;;;;;;;;;4574093;76;28524;-88
2022/12/18 12:40:27;;;;;;;33.75;12.43;;;;;;;;;;4572828;76;28548;-88
2022/12/18 12:46:29;;;;;;;30.88;12.15;;;;;;;;;;4589882;76;28684;-88
2022/12/18 12:52:32;;;;;;;30.15;11.83;;;;;;;;;;4584073;76;43358;-89
2022/12/18 12:58:44;;;;;;;32.13;12.18;;;;;;;;;;4583750;76;44060;-88
2022/12/18 13:04:49;;;;;;;29.27;11.73;;;;;;;;;;4558586;76;43441;-88
2022/12/18 13:12:55;;;;;;;37.30;13.38;;;;;;;;;;4580548;76;28621;-88
2022/12/18 13:17:05;;;;;;;32.95;12.23;;;;;;;;;;4561382;76;44096;-89
2022/12/18 13:23:26;;;;;;;33.50;12.70;;;;;;;;;;4596943;76;44127;-88
2022/12/18 13:29:45;;;;;;;30.70;11.30;;;;;;;;;;4575271;76;28555;-90
2022/12/18 13:35:48;;;;;;;29.85;11.05;;;;;;;;;;4593038;76;28502;-89
2022/12/18 13:41:51;;;;;;;25.57;10.25;;;;;;;;;;4575186;76;43421;-90
2022/12/18 13:47:52;;;;;;;30.32;11.53;;;;;;;;;;4549960;76;43425;-90
2022/12/18 13:53:57;;;;;;;26.90;11.10;;;;;;;;;;4570060;76;43445;-90
2022/12/18 14:00:00;;;;;;;33.20;11.95;;;;;;;;;;4572305;76;28520;-90
2022/12/18 14:06:03;;;;;;;28.35;11.20;;;;;;;;;;4589067;76;43374;-90
2022/12/18 14:18:27;;;;;;;31.25;11.85;;;;;;;;;;4587854;76;43437;-90
2022/12/18 14:24:29;;;;;;;30.65;11.78;;;;;;;;;;4593304;76;43394;-91
2022/12/18 14:30:31;;;;;;;32.45;13.13;;;;;;;;;;4593639;76;44060;-90
2022/12/18 14:36:32;;;;;;;41.83;15.45;;;;;;;;;;4593419;76;44544;-91
2022/12/18 14:42:33;;;;;;;38.58;14.50;;;;;;;;;;4587168;76;44516;-90
2022/12/18 14:48:39;;;;;;;41.95;14.50;;;;;;;;;;4550135;76;44709;-90
2022/12/18 14:54:40;;;;;;;43.00;16.12;;;;;;;;;;4532835;76;44452;-89
2022/12/18 15:00:42;;;;;;;41.33;16.48;;;;;;;;;;4530294;76;44411;-89
2022/12/18 15:06:43;;;;;;;40.70;15.08;;;;;;;;;;4558254;76;44419;-89
2022/12/18 15:12:44;;;;;;;41.23;15.83;;;;;;;;;;4576770;77;44474;-88
2022/12/18 15:18:47;;;;;;;45.25;16.40;;;;;;;;;;4582204;76;43717;-89
2022/12/18 15:24:49;;;;;;;45.70;16.00;;;;;;;;;;4573528;76;43709;-88
2022/12/18 15:31:00;;;;;;;40.95;15.10;;;;;;;;;;4573263;76;44438;-86
2022/12/18 15:37:01;;;;;;;47.58;16.73;;;;;;;;;;4546837;76;43788;-85
2022/12/18 15:49:23;;;;;;;43.68;16.27;;;;;;;;;;4567969;76;43662;-83
2022/12/18 16:01:45;;;;;;;46.53;17.50;;;;;;;;;;4569161;76;43807;-82
2022/12/18 16:07:46;;;;;;;43.20;15.68;;;;;;;;;;4563741;76;44458;-84
2022/12/18 16:13:47;;;;;;;48.63;18.27;;;;;;;;;;4577839;76;43772;-89
2022/12/18 16:19:48;;;;;;;56.80;23.02;;;;;;;;;;4593658;76;44123;-85
2022/12/18 16:25:49;;;;;;;61.08;23.47;;;;;;;;;;4601495;76;44587;-84
2022/12/18 16:31:51;;;;;;;50.92;18.95;;;;;;;;;;4586651;76;43806;-86
2022/12/18 16:37:52;;;;;;;55.12;18.70;;;;;;;;;;4579797;77;44072;-85
2022/12/18 16:43:53;;;;;;;55.10;20.37;;;;;;;;;;4527143;77;44097;-80
2022/12/18 16:49:54;;;;;;;51.50;19.37;;;;;;;;;;4444834;78;43831;-80
2022/12/18 16:55:55;;;;;;;50.12;18.90;;;;;;;;;;4470316;77;43760;-83
2022/12/18 17:01:56;;;;;;;55.83;20.62;;;;;;;;;;4439238;77;44156;-79
2022/12/18 17:07:57;;;;;;;55.23;19.73;;;;;;;;;;4454141;77;44130;-78
2022/12/18 17:13:58;;;;;;;56.25;21.12;;;;;;;;;;4452075;77;44129;-79
2022/12/18 17:19:59;;;;;;;60.05;22.62;;;;;;;;;;4484184;77;44119;-85
2022/12/18 17:26:01;;;;;;;66.28;23.60;;;;;;;;;;4468020;77;43766;-85
2022/12/18 17:32:02;;;;;;;65.47;23.52;;;;;;;;;;4476299;77;43709;-85
2022/12/18 17:38:03;;;;;;;64.45;22.52;;;;;;;;;;4378921;79;43588;-85
2022/12/18 17:44:04;;;;;;;65.28;24.12;;;;;;;;;;4432277;78;43782;-81
2022/12/18 17:50:06;;;;;;;65.12;24.60;;;;;;;;;;4548699;76;43792;-84
2022/12/18 17:56:08;;;;;;;63.95;25.50;;;;;;;;;;4565616;76;43299;-83
2022/12/18 18:02:10;;;;;;;68.75;26.25;;;;;;;;;;4564598;76;42909;-82
2022/12/18 18:08:11;;;;;;;70.42;26.68;;;;;;;;;;4567731;76;44009;-82
2022/12/18 18:14:14;;;;;;;67.97;25.72;;;;;;;;;;4548978;76;42887;-85
2022/12/18 18:20:15;;;;;;;75.75;30.32;;;;;;;;;;4561090;76;44123;-87
2022/12/18 18:26:16;;;;;;;80.00;31.55;;;;;;;;;;4561863;76;42677;-84
2022/12/18 18:32:19;;;;;;;80.30;31.87;;;;;;;;;;4554284;76;42236;-86
2022/12/18 18:38:20;;;;;;;78.42;31.05;;;;;;;;;;4557155;76;43765;-84
2022/12/18 18:44:22;;;;;;;85.60;33.00;;;;;;;;;;4538699;76;43139;-84
2022/12/18 18:50:22;;;;;;;89.95;32.78;;;;;;;;;;4517437;77;44113;-88
2022/12/18 18:56:26;;;;;;;98.70;36.33;;;;;;;;;;4527638;77;44549;-89
2022/12/18 19:02:27;;;;;;;101.62;34.20;;;;;;;;;;4516128;77;43839;-82
2022/12/18 19:08:29;;;;;;;94.22;34.38;;;;;;;;;;4525519;77;44112;-90
2022/12/18 19:14:30;;;;;;;88.72;34.58;;;;;;;;;;4519631;77;44200;-87
2022/12/18 19:20:31;;;;;;;91.70;36.13;;;;;;;;;;4534993;77;44471;-91
2022/12/18 19:26:33;;;;;;;90.17;33.50;;;;;;;;;;4409902;79;44118;-86
2022/12/18 19:32:37;;;;;;;85.57;33.75;;;;;;;;;;4411501;79;43058;-81
2022/12/18 19:38:40;;;;;;;84.28;32.35;;;;;;;;;;4407771;79;43388;-86
2022/12/18 19:44:41;;;;;;;84.35;30.90;;;;;;;;;;4534893;76;43118;-81
2022/12/18 19:50:41;;;;;;;88.55;33.60;;;;;;;;;;4573784;77;44159;-83
2022/12/18 19:56:43;;;;;;;78.83;30.70;;;;;;;;;;4552379;77;43736;-84
2022/12/18 20:02:44;;;;;;;90.75;33.48;;;;;;;;;;4552700;76;44171;-86
2022/12/18 20:08:46;;;;;;;91.37;34.10;;;;;;;;;;4556021;77;44190;-82
2022/12/18 20:14:48;;;;;;;88.37;33.65;;;;;;;;;;4433097;78;44119;-86
2022/12/18 20:20:49;;;;;;;89.80;35.05;;;;;;;;;;4571904;76;44096;-83
2022/12/18 20:26:50;;;;;;;89.55;34.73;;;;;;;;;;4574221;77;44353;-83
2022/12/18 20:32:52;;;;;;;92.92;36.17;;;;;;;;;;4560161;76;44559;-85
2022/12/18 20:38:55;;;;;;;92.45;34.13;;;;;;;;;;4552786;76;44127;-87
2022/12/18 20:44:56;;;;;;;80.40;32.17;;;;;;;;;;4582572;76;43082;-87
2022/12/18 20:50:59;;;;;;;83.42;31.77;;;;;;;;;;4547495;77;43063;-84
2022/12/18 20:57:00;;;;;;;81.75;31.10;;;;;;;;;;4559559;76;43051;-87
2022/12/18 21:03:01;;;;;;;77.05;30.48;;;;;;;;;;4555014;77;43727;-85
2022/12/18 21:09:03;;;;;;;74.45;31.48;;;;;;;;;;4563964;77;44140;-82
2022/12/18 21:15:04;;;;;;;70.97;27.10;;;;;;;;;;4588022;76;44115;-87
2022/12/18 21:21:05;;;;;;;66.85;26.60;;;;;;;;;;4567140;76;43251;-85
2022/12/18 21:27:06;;;;;;;71.82;26.62;;;;;;;;;;4521184;77;43958;-85
2022/12/18 21:33:07;;;;;;;71.55;27.13;;;;;;;;;;4533765;76;44194;-86
2022/12/18 21:39:08;;;;;;;72.17;28.05;;;;;;;;;;4536632;76;44163;-78
2022/12/18 21:45:12;;;;;;;71.10;27.82;;;;;;;;;;4583666;76;44135;-77
2022/12/18 21:51:13;;;;;;;67.90;27.90;;;;;;;;;;4592250;76;44123;-83
2022/12/18 21:57:15;;;;;;;79.53;30.35;;;;;;;;;;4585065;76;43799;-82
2022/12/18 22:03:17;;;;;;;66.60;24.75;;;;;;;;;;4584557;76;43779;-80
2022/12/18 22:09:19;;;;;;;69.72;28.25;;;;;;;;;;4586949;77;44171;-78
2022/12/18 22:15:19;;;;;;;86.57;32.78;;;;;;;;;;4585140;76;43279;-80
2022/12/18 22:21:22;;;;;;;77.27;30.05;;;;;;;;;;4592219;76;43717;-79
2022/12/18 22:27:22;;;;;;;75.57;28.87;;;;;;;;;;4590554;76;44123;-80
2022/12/18 22:33:23;;;;;;;78.75;31.35;;;;;;;;;;4577411;76;43642;-80
2022/12/18 22:39:27;;;;;;;77.58;29.75;;;;;;;;;;4574874;76;43681;-82
2022/12/18 22:45:28;;;;;;;84.83;33.00;;;;;;;;;;4587848;76;43150;-82
2022/12/18 22:51:30;;;;;;;90.75;34.13;;;;;;;;;;4566093;76;44175;-81
2022/12/18 22:57:31;;;;;;;79.20;30.75;;;;;;;;;;4576114;76;43714;-79
2022/12/18 23:03:32;;;;;;;76.60;29.82;;;;;;;;;;4550425;76;43292;-77
2022/12/18 23:09:33;;;;;;;83.65;28.85;;;;;;;;;;4544534;76;43401;-78
2022/12/18 23:15:34;;;;;;;79.92;29.85;;;;;;;;;;4571244;76;43835;-79
2022/12/18 23:21:34;;;;;;;75.75;28.98;;;;;;;;;;4557510;76;44142;-78
2022/12/18 23:27:35;;;;;;;77.05;29.98;;;;;;;;;;4612516;76;44111;-79
2022/12/18 23:33:36;;;;;;;72.92;27.98;;;;;;;;;;4596061;76;44124;-79
2022/12/18 23:39:37;;;;;;;73.87;28.07;;;;;;;;;;4588668;76;44151;-80
2022/12/18 23:45:38;;;;;;;74.47;29.42;;;;;;;;;;4586479;76;44628;-79
2022/12/18 23:51:38;;;;;;;74.97;28.95;;;;;;;;;;4556674;76;44139;-78
2022/12/18 23:57:39;;;;;;;71.10;26.97;;;;;;;;;;4576397;76;44142;-79
